Terminal Aerodrome Forecast
Issued by NWS

Home | Current Version | Previous Version | Text Only | Print | Product List | Glossary On
Versions: 1 2 3 4 5 6 7 8 9 10 11 12 13
098
FTUS46 KSEW 240520
TAFBLI
TAF
KBLI 240520Z 2406/2506 36004KT P6SM SKC
     FM241000 00000KT P6SM MIFG SKC
      TEMPO 2411/2415 1/2SM FG VV002
     FM241700 31003KT P6SM SKC=

USA.gov is the U.S. government's official web portal to all federal, state and local government web resources and services.